< Typhoon 198626 1986 Season Typhoon 198628 >
Typhoon 198627 (LEX)
General InformationTrack Information on Google MapsDetailed Wind InformationList of All Images || NewsDisaster Info.ResourceGoogle EarthGE AnimationAtom FeedGeoJSON
Detalied Best Track (Time Zone = UTC)
Year Month Day Hour Lat. Long. Pressure (hPa) Wind (kt) Class Image Chart
1986 12 2 18 6.5 166.0 1002 0 2 Image Chart
1986 12 3 00 6.7 165.2 1002 0 2 Image Chart
1986 12 3 06 7.0 164.5 1002 0 2 Image Chart
1986 12 3 12 7.2 163.7 1002 0 2 Image Chart
1986 12 3 18 7.5 162.9 1000 0 2 Image Chart
1986 12 4 00 7.8 162.1 998 35 3 Image Chart
1986 12 4 06 8.1 161.4 994 40 3 Image Chart
1986 12 4 12 8.7 160.6 994 45 3 Image Chart
1986 12 4 18 9.3 159.8 998 50 4 Image Chart
1986 12 5 00 9.9 158.5 1000 50 4 Image Chart
1986 12 5 06 10.3 157.1 1002 0 2 Image Chart
1986 12 5 12 10.5 156.1 1004 0 2 Image Chart
1986 12 5 18 10.7 155.2 1004 0 2 Image Chart
1986 12 6 00 11.2 154.1 1004 0 2 Image Chart
1986 12 6 06 11.8 152.8 1004 0 2 Image Chart
1986 12 6 12 12.4 151.0 1004 0 2 Image Chart
1986 12 6 18 12.9 149.2 1004 0 2 Image Chart
1986 12 7 00 13.4 147.3 1004 0 2 Image Chart
1986 12 7 06 14.5 145.2 1004 0 2 Image Chart
1986 12 7 12 16.0 143.0 1004 0 2 Image Chart
1986 12 7 18 18.0 141.0 1004 0 2 Image Chart
1986 12 8 00 20.0 141.0 1004 0 2 Image Chart
1986 12 8 06 22.0 141.5 1004 0 2 Image Chart
1986 12 8 12 23.0 143.0 1006 0 2 Image Chart
1986 12 8 18 24.0 145.0 1008 0 2 Image Chart
Japan Meteorological Agency Best Track Data | Correction Date : 1992-10-21
< Typhoon 198626 1986 Season Typhoon 198628 >

Help